Time;durP1;ratioP1;P1;durP2;ratioP2;P2;SDS_P1;SDS_P2;PMS_P1;PMS_P2;Temp;Humidity;BMP_temperature;BMP_pressure;BME280_temperature;BME280_humidity;BME280_pressure;Samples;Min_cycle;Max_cycle;Signal;HPM_P1;HPM_P2
2021/09/17 00:02:08;;;;;;;12.57;6.53;;;;;;;13.90;95.97;96313.75;5192909;57;20243;-76
2021/09/17 00:07:11;;;;;;;9.15;6.88;;;;;;;13.68;96.64;96307.13;5190691;57;20142;-75
2021/09/17 00:12:13;;;;;;;10.52;6.22;;;;;;;13.47;98.39;96307.06;5190136;57;20132;-74
2021/09/17 00:17:16;;;;;;;8.05;6.03;;;;;;;13.52;97.66;96300.81;5189345;57;20141;-75
2021/09/17 00:22:19;;;;;;;9.63;6.25;;;;;;;13.39;97.24;96299.59;5231282;45;20126;-75
2021/09/17 00:27:21;;;;;;;7.70;5.90;;;;;;;13.30;97.20;96305.25;5242629;56;20585;-75
2021/09/17 00:32:24;;;;;;;11.68;6.20;;;;;;;13.21;98.55;96310.91;5230990;56;20118;-75
2021/09/17 00:37:26;;;;;;;10.30;6.70;;;;;;;13.21;98.19;96305.38;5221712;56;20122;-75
2021/09/17 00:42:28;;;;;;;7.53;6.25;;;;;;;13.14;97.94;96303.75;5221687;56;20269;-75
2021/09/17 00:47:31;;;;;;;9.85;6.25;;;;;;;13.00;99.21;96307.28;5221544;56;20220;-75
2021/09/17 00:52:34;;;;;;;9.80;5.95;;;;;;;13.04;99.44;96304.31;5221956;56;20149;-75
2021/09/17 00:57:38;;;;;;;10.73;6.63;;;;;;;13.15;98.99;96294.19;5220999;56;20118;-75
2021/09/17 01:02:41;;;;;;;10.07;6.57;;;;;;;13.31;99.15;96296.47;5221425;56;20680;-76
2021/09/17 01:07:45;;;;;;;11.23;7.22;;;;;;;13.48;98.75;96286.38;5221257;56;20219;-75
2021/09/17 01:12:48;;;;;;;10.57;6.88;;;;;;;13.56;98.70;96298.63;5221500;56;20135;-75
2021/09/17 01:17:50;;;;;;;11.68;7.35;;;;;;;13.76;98.20;96297.13;5221051;56;20721;-76
2021/09/17 01:22:52;;;;;;;13.48;7.15;;;;;;;13.88;98.14;96284.94;5221350;56;20127;-74
2021/09/17 01:27:55;;;;;;;13.07;7.15;;;;;;;13.90;97.90;96283.19;5221060;56;20118;-75
2021/09/17 01:32:57;;;;;;;11.00;7.28;;;;;;;13.94;97.67;96278.19;5221091;56;20100;-75
2021/09/17 01:37:59;;;;;;;12.70;7.32;;;;;;;13.94;98.12;96269.88;5220817;56;20126;-75
2021/09/17 01:43:03;;;;;;;11.45;7.78;;;;;;;13.89;98.26;96264.22;5220654;56;20291;-75
2021/09/17 01:48:05;;;;;;;16.48;8.27;;;;;;;13.79;97.66;96260.84;5220601;56;20613;-75
2021/09/17 01:53:08;;;;;;;13.18;8.15;;;;;;;14.11;97.38;96259.72;5220611;56;20118;-75
2021/09/17 01:58:10;;;;;;;10.77;7.25;;;;;;;14.05;97.56;96256.13;5220955;56;20127;-74
2021/09/17 02:03:12;;;;;;;10.48;7.15;;;;;;;14.20;96.93;96254.00;5220695;56;20140;-76
2021/09/17 02:08:15;;;;;;;11.07;7.15;;;;;;;14.20;96.59;96261.59;5221061;56;20127;-74
2021/09/17 02:13:20;;;;;;;11.73;7.95;;;;;;;14.18;95.12;96255.78;5215195;56;20698;-75
2021/09/17 02:18:22;;;;;;;13.43;6.82;;;;;;;14.21;96.37;96260.34;5223669;56;20127;-75
2021/09/17 02:23:24;;;;;;;12.50;7.50;;;;;;;14.22;95.60;96261.88;5223827;56;20135;-75
2021/09/17 02:28:27;;;;;;;10.25;6.95;;;;;;;14.20;95.61;96269.94;5223464;56;20122;-75
2021/09/17 02:33:29;;;;;;;9.52;7.15;;;;;;;14.02;95.91;96261.88;5223687;56;20701;-75
2021/09/17 02:38:32;;;;;;;10.27;7.05;;;;;;;14.19;96.19;96263.63;5223471;56;20586;-75
2021/09/17 02:43:34;;;;;;;14.48;7.07;;;;;;;14.19;95.13;96262.84;5223859;56;20144;-75
2021/09/17 02:48:36;;;;;;;11.75;7.30;;;;;;;14.11;96.51;96270.09;5223402;56;20127;-75
2021/09/17 02:53:39;;;;;;;12.10;7.40;;;;;;;14.15;95.97;96274.19;5214596;56;20130;-75
2021/09/17 02:58:41;;;;;;;9.65;7.15;;;;;;;14.10;95.95;96269.31;5223204;56;20118;-75
2021/09/17 03:03:44;;;;;;;9.50;6.18;;;;;;;14.24;94.48;96265.69;5223514;56;20135;-75
2021/09/17 03:08:46;;;;;;;11.38;7.00;;;;;;;14.34;94.62;96266.31;5223325;56;20127;-75
2021/09/17 03:13:48;;;;;;;8.90;6.25;;;;;;;14.29;94.79;96272.56;5223047;56;20601;-75
2021/09/17 03:18:51;;;;;;;10.57;6.97;;;;;;;14.23;94.93;96260.63;5222624;56;20136;-74
2021/09/17 03:23:53;;;;;;;11.35;6.60;;;;;;;14.35;94.25;96260.28;5222397;56;20257;-75
2021/09/17 03:28:56;;;;;;;10.60;7.13;;;;;;;14.31;93.46;96268.06;5222679;56;20128;-75
2021/09/17 03:33:59;;;;;;;11.70;7.28;;;;;;;14.33;94.72;96273.16;5222748;56;20609;-75
2021/09/17 03:39:01;;;;;;;10.35;7.07;;;;;;;14.18;94.89;96261.34;5222343;56;20237;-75
2021/09/17 03:44:04;;;;;;;11.82;6.88;;;;;;;14.22;94.65;96251.50;5222431;56;20148;-75
2021/09/17 03:49:06;;;;;;;14.13;7.25;;;;;;;14.24;93.88;96256.59;5222185;56;20127;-75
2021/09/17 03:54:09;;;;;;;11.10;8.15;;;;;;;13.99;95.06;96248.97;5222225;56;20153;-75
2021/09/17 03:59:11;;;;;;;13.15;8.82;;;;;;;14.23;94.52;96255.06;5222433;56;20114;-75
2021/09/17 04:04:13;;;;;;;10.25;7.80;;;;;;;14.25;93.98;96253.31;5222042;56;20135;-75
2021/09/17 04:09:16;;;;;;;12.10;8.00;;;;;;;14.07;93.97;96250.06;5222065;56;20127;-75
2021/09/17 04:14:18;;;;;;;10.25;7.10;;;;;;;14.12;95.25;96246.59;5222112;56;20139;-75
2021/09/17 04:19:20;;;;;;;9.82;6.80;;;;;;;14.04;95.44;96242.72;5222080;56;20122;-74
2021/09/17 04:24:23;;;;;;;10.07;6.70;;;;;;;14.04;95.58;96245.50;5221970;56;20573;-75
2021/09/17 04:29:25;;;;;;;11.38;7.45;;;;;;;13.97;95.11;96255.00;5222547;56;20703;-74
2021/09/17 04:34:27;;;;;;;10.82;7.55;;;;;;;13.97;95.00;96251.47;5221894;56;20136;-75
2021/09/17 04:39:30;;;;;;;11.45;7.20;;;;;;;13.94;95.45;96253.19;5221722;56;20148;-75
2021/09/17 04:44:32;;;;;;;11.77;7.95;;;;;;;13.89;95.29;96255.88;5221493;56;20131;-75
2021/09/17 04:49:34;;;;;;;13.05;7.88;;;;;;;13.96;96.12;96263.81;5221592;56;20140;-75
2021/09/17 04:54:38;;;;;;;14.75;7.70;;;;;;;13.98;94.92;96259.31;5221697;56;20132;-75
2021/09/17 04:59:40;;;;;;;12.02;7.50;;;;;;;14.09;96.24;96265.00;5221160;56;20157;-75
2021/09/17 05:04:42;;;;;;;13.35;7.90;;;;;;;14.00;95.55;96261.63;5221391;56;20596;-75
2021/09/17 05:09:45;;;;;;;15.55;8.07;;;;;;;14.19;95.50;96273.97;5221068;56;20131;-75
2021/09/17 05:14:48;;;;;;;13.55;7.60;;;;;;;14.19;95.63;96263.63;5221441;56;20109;-75
2021/09/17 05:19:50;;;;;;;15.10;7.80;;;;;;;14.33;94.24;96264.81;5219766;56;20113;-75
2021/09/17 05:24:53;;;;;;;11.80;7.60;;;;;;;14.35;94.36;96276.22;5220061;56;20126;-74
2021/09/17 05:29:55;;;;;;;12.10;7.00;;;;;;;14.32;95.01;96272.38;5220470;56;20122;-72
2021/09/17 05:34:58;;;;;;;10.45;7.00;;;;;;;14.38;93.96;96275.25;5220827;56;20122;-71
2021/09/17 05:40:01;;;;;;;10.57;7.40;;;;;;;14.55;94.09;96273.38;5220646;56;20131;-73
2021/09/17 05:45:05;;;;;;;13.05;8.27;;;;;;;14.38;93.92;96272.47;5220328;56;20135;-72
2021/09/17 05:50:11;;;;;;;11.48;7.75;;;;;;;14.38;93.04;96266.91;5220320;56;20165;-71
2021/09/17 05:55:14;;;;;;;13.40;7.70;;;;;;;14.38;92.96;96292.66;5218406;56;20118;-73
2021/09/17 06:00:16;;;;;;;13.40;8.23;;;;;;;14.47;92.44;96302.13;5219343;56;20140;-73
2021/09/17 06:05:19;;;;;;;14.40;7.10;;;;;;;14.77;91.48;96301.44;5219164;56;20140;-73
2021/09/17 06:10:21;;;;;;;10.25;7.05;;;;;;;14.76;90.83;96290.81;5220610;56;20192;-73
2021/09/17 06:15:23;;;;;;;12.70;7.95;;;;;;;14.87;91.24;96299.25;5220254;56;20663;-72
2021/09/17 06:20:26;;;;;;;10.30;7.32;;;;;;;15.18;90.57;96290.16;5210111;56;20132;-72
2021/09/17 06:25:28;;;;;;;12.05;6.75;;;;;;;15.31;88.39;96294.06;5214369;56;20158;-73
2021/09/17 06:30:30;;;;;;;9.13;6.63;;;;;;;15.42;89.43;96296.97;5215817;56;20617;-72
2021/09/17 06:35:34;;;;;;;10.57;7.63;;;;;;;15.57;88.94;96297.63;5215786;56;20667;-73
2021/09/17 06:40:36;;;;;;;10.43;7.22;;;;;;;15.69;88.19;96288.06;5219755;56;20136;-73
2021/09/17 06:45:39;;;;;;;11.57;7.47;;;;;;;15.74;85.88;96292.13;5219071;56;20144;-73
2021/09/17 06:50:41;;;;;;;11.57;8.05;;;;;;;15.83;86.07;96293.97;5214858;56;20132;-73
2021/09/17 06:55:44;;;;;;;10.95;7.70;;;;;;;15.83;87.58;96289.16;5211741;56;20704;-72
2021/09/17 07:00:46;;;;;;;10.55;7.35;;;;;;;15.90;87.18;96288.69;5222705;56;20126;-73
2021/09/17 07:05:48;;;;;;;13.18;7.70;;;;;;;16.27;86.53;96291.41;5223000;56;20252;-73
2021/09/17 07:10:54;;;;;;;11.07;6.72;;;;;;;16.61;81.88;96287.50;5229897;45;20650;31
2021/09/17 07:15:57;;;;;;;9.25;6.90;;;;;;;16.68;82.49;96294.63;5205086;57;20114;-73
2021/09/17 07:21:01;;;;;;;8.07;6.80;;;;;;;16.60;82.04;96288.03;5207654;56;20379;-73
2021/09/17 07:26:03;;;;;;;8.25;6.53;;;;;;;16.63;81.94;96287.78;5204728;57;20118;-74
2021/09/17 07:31:06;;;;;;;10.45;7.15;;;;;;;16.42;84.88;96295.53;5204487;57;20110;-73
2021/09/17 07:36:08;;;;;;;9.30;6.75;;;;;;;16.75;85.03;96294.91;5205673;57;20162;-73
2021/09/17 07:41:11;;;;;;;11.27;7.65;;;;;;;16.78;80.10;96285.50;5196637;57;20209;-74
2021/09/17 07:46:13;;;;;;;11.45;8.27;;;;;;;16.75;82.20;96291.34;5204294;57;20136;-73
2021/09/17 07:51:15;;;;;;;12.85;8.25;;;;;;;16.85;80.60;96287.81;5202903;57;20119;-75
2021/09/17 07:56:18;;;;;;;13.50;9.40;;;;;;;16.88;79.03;96283.25;5202102;57;20136;-75
2021/09/17 08:01:20;;;;;;;13.68;8.57;;;;;;;16.79;79.27;96283.50;5202238;57;20141;-76
2021/09/17 08:06:23;;;;;;;12.65;8.48;;;;;;;16.80;80.37;96285.03;5201221;57;20666;-75
2021/09/17 08:11:25;;;;;;;13.48;8.93;;;;;;;16.69;80.12;96296.16;5201387;57;20609;-75
2021/09/17 08:16:28;;;;;;;11.65;8.55;;;;;;;16.83;80.52;96301.50;5198319;56;20114;-74
2021/09/17 08:21:31;;;;;;;11.32;7.53;;;;;;;17.18;78.00;96307.44;5202235;57;20128;-74
2021/09/17 08:26:33;;;;;;;11.13;7.82;;;;;;;17.60;76.39;96305.66;5202030;56;20124;-75
2021/09/17 08:31:36;;;;;;;10.30;7.20;;;;;;;18.49;74.07;96306.25;5202082;57;20119;-75
2021/09/17 08:36:39;;;;;;;9.52;7.20;;;;;;;18.70;73.02;96301.84;5201670;57;20128;-74
2021/09/17 08:41:45;;;;;;;8.20;6.65;;;;;;;18.69;70.33;96308.69;5201760;57;20132;-75
2021/09/17 08:46:48;;;;;;;10.07;7.32;;;;;;;18.59;70.99;96305.44;5202022;56;20140;-75
2021/09/17 08:51:53;;;;;;;10.68;7.30;;;;;;;17.95;72.61;96311.47;5201492;57;20128;-75
2021/09/17 08:56:56;;;;;;;8.95;7.07;;;;;;;17.97;77.03;96310.94;5192168;57;20119;-73
2021/09/17 09:02:19;;;;;;;10.98;7.22;;;;;;;18.37;74.22;96305.50;5201600;57;20105;-74
2021/09/17 09:07:30;;;;;;;11.15;8.25;;;;;;;18.90;68.75;96309.09;5202430;56;20136;-75
2021/09/17 09:12:32;;;;;;;12.05;7.40;;;;;;;18.46;70.31;96307.28;5202234;57;20231;-73
2021/09/17 09:17:36;;;;;;;12.07;6.72;;;;;;;18.70;70.23;96309.47;5193235;57;20162;-74
2021/09/17 09:22:38;;;;;;;8.88;7.63;;;;;;;19.15;70.54;96305.13;5200947;57;20244;-75
2021/09/17 09:27:40;;;;;;;12.30;7.78;;;;;;;18.51;70.67;96303.69;5200747;57;20631;-74
2021/09/17 09:32:42;;;;;;;8.48;6.57;;;;;;;18.88;69.29;96286.47;5201444;57;20154;-75
2021/09/17 09:37:45;;;;;;;10.63;6.95;;;;;;;19.88;65.52;96284.41;5200613;57;20110;-75
2021/09/17 09:42:47;;;;;;;7.30;6.43;;;;;;;19.87;63.86;96284.94;5201065;57;20582;-76
2021/09/17 09:47:55;;;;;;;8.20;6.13;;;;;;;19.37;65.51;96285.38;5201496;57;20128;-72
2021/09/17 09:53:01;;;;;;;8.97;6.17;;;;;;;19.30;66.24;96266.28;5194006;57;20110;-72
2021/09/17 09:58:04;;;;;;;7.68;6.43;;;;;;;19.52;66.30;96274.53;5207007;57;20605;-72
2021/09/17 10:03:06;;;;;;;6.75;5.97;;;;;;;19.97;64.13;96261.63;5206343;57;20119;-72
2021/09/17 10:08:11;;;;;;;8.85;6.38;;;;;;;19.71;64.29;96255.78;5206786;57;20119;-72
2021/09/17 10:13:13;;;;;;;5.35;4.85;;;;;;;19.78;61.83;96251.63;5207272;57;20124;-73
2021/09/17 10:18:19;;;;;;;6.38;5.00;;;;;;;20.04;60.31;96255.41;5207012;56;20119;-72
2021/09/17 10:23:31;;;;;;;3.45;3.10;;;;;;;19.71;59.35;96261.38;5207980;57;20123;-72
2021/09/17 10:28:54;;;;;;;3.63;3.03;;;;;;;19.34;60.80;96255.56;5202038;56;20132;-72
2021/09/17 10:34:33;;;;;;;4.88;3.45;;;;;;;19.89;58.77;96257.88;5207839;57;20163;-72
2021/09/17 10:39:37;;;;;;;4.78;2.55;;;;;;;19.55;56.56;96253.13;5210844;57;20110;-73
2021/09/17 10:45:01;;;;;;;2.78;2.20;;;;;;;19.77;55.35;96238.88;5209200;57;20236;-72
2021/09/17 10:50:04;;;;;;;2.60;2.40;;;;;;;20.22;56.46;96225.91;5210141;56;20122;-72
2021/09/17 10:55:08;;;;;;;3.30;2.63;;;;;;;20.07;54.51;96236.00;5210235;57;20101;-72
2021/09/17 11:00:48;;;;;;;4.20;1.60;;;;;;;19.71;49.57;96241.00;5209703;56;20137;-73
2021/09/17 11:06:26;;;;;;;3.33;1.90;;;;;;;19.88;54.52;96231.13;5212668;57;20764;-73
2021/09/17 11:11:41;;;;;;;1.87;1.70;;;;;;;19.54;54.13;96232.72;5214297;57;20114;-72
2021/09/17 11:16:52;;;;;;;1.17;1.17;;;;;;;19.96;50.52;96229.25;5214647;56;20114;-74
2021/09/17 11:21:54;;;;;;;1.20;1.20;;;;;;;20.36;46.70;96221.91;5211539;57;20158;-73
2021/09/17 11:26:57;;;;;;;1.10;1.10;;;;;;;20.28;47.20;96220.22;5212898;57;20127;-74
2021/09/17 11:32:01;;;;;;;2.03;1.33;;;;;;;20.35;49.60;96225.25;5212251;57;20123;-74
2021/09/17 11:37:04;;;;;;;1.52;1.42;;;;;;;20.47;47.87;96226.59;5211168;56;20324;-74
2021/09/17 11:42:15;;;;;;;1.80;1.70;;;;;;;19.49;52.28;96219.56;5210950;56;20114;-74
2021/09/17 11:47:23;;;;;;;2.03;1.92;;;;;;;19.44;53.16;96220.34;5211826;57;20141;-73
2021/09/17 11:52:26;;;;;;;4.90;1.58;;;;;;;19.88;52.41;96205.09;5210338;57;20123;-73
2021/09/17 11:57:34;;;;;;;6.60;1.42;;;;;;;19.77;50.48;96208.81;5210001;56;20605;-73
2021/09/17 12:02:37;;;;;;;1.63;1.50;;;;;;;19.54;48.28;96207.50;5210745;57;20579;-73
2021/09/17 12:07:42;;;;;;;1.50;1.40;;;;;;;19.16;49.53;96212.16;5208919;56;20789;-74
2021/09/17 12:12:46;;;;;;;1.60;1.50;;;;;;;19.33;50.49;96210.00;5210666;57;20115;-73
2021/09/17 12:17:54;;;;;;;1.95;1.80;;;;;;;19.88;48.87;96210.72;5209167;57;20115;-73
2021/09/17 12:22:58;;;;;;;1.40;1.15;;;;;;;20.03;47.17;96197.81;5209323;57;20128;-72
2021/09/17 12:28:06;;;;;;;1.70;1.60;;;;;;;20.10;48.63;96198.50;5209925;57;20131;-74
2021/09/17 12:33:12;;;;;;;5.10;1.70;;;;;;;19.83;49.03;96205.94;5210310;57;20323;-73
2021/09/17 12:38:17;;;;;;;1.55;1.45;;;;;;;20.46;47.69;96199.84;5210272;57;20664;-74
2021/09/17 12:43:30;;;;;;;2.08;1.90;;;;;;;20.53;48.13;96197.19;5213328;57;20146;-73
2021/09/17 12:48:35;;;;;;;1.60;1.50;;;;;;;20.18;48.89;96186.13;5212074;57;20274;-73
2021/09/17 12:53:39;;;;;;;1.80;1.70;;;;;;;20.00;48.89;96198.84;5213271;57;20110;-73
2021/09/17 12:58:42;;;;;;;1.83;1.73;;;;;;;20.78;48.59;96191.47;5211838;57;20119;-72
2021/09/17 13:03:44;;;;;;;2.72;1.60;;;;;;;20.59;48.13;96197.88;5212771;56;20669;-73
2021/09/17 13:08:47;;;;;;;2.42;2.22;;;;;;;19.92;48.39;96191.56;5211433;56;20123;-72
2021/09/17 13:13:49;;;;;;;1.92;1.83;;;;;;;20.46;47.92;96186.56;5212714;56;20084;-73
2021/09/17 13:18:52;;;;;;;2.25;1.67;;;;;;;19.77;49.41;96189.16;5217196;56;20084;-73
2021/09/17 13:23:54;;;;;;;1.60;1.50;;;;;;;20.14;51.27;96182.88;5218119;56;20137;-73
2021/09/17 13:28:57;;;;;;;1.35;1.30;;;;;;;20.51;48.34;96177.28;5208945;57;20114;-72
2021/09/17 13:33:59;;;;;;;1.25;1.23;;;;;;;20.84;45.67;96172.47;5216440;57;20447;-71
2021/09/17 13:39:01;;;;;;;1.98;1.50;;;;;;;20.88;48.17;96170.13;5217988;56;20093;-72
2021/09/17 13:44:04;;;;;;;3.75;1.70;;;;;;;20.45;47.52;96173.06;5217005;57;20131;-72
2021/09/17 13:49:06;;;;;;;1.50;1.48;;;;;;;20.11;49.03;96163.53;5217209;57;20136;-73
2021/09/17 13:54:09;;;;;;;1.40;1.40;;;;;;;20.36;47.66;96162.19;5218036;45;20132;-72
2021/09/17 13:59:11;;;;;;;1.70;1.60;;;;;;;20.03;47.89;96152.16;5202536;57;20655;-72
2021/09/17 14:04:14;;;;;;;1.67;1.58;;;;;;;19.89;47.13;96156.91;5200007;56;20587;-72
2021/09/17 14:09:16;;;;;;;2.80;1.80;;;;;;;19.66;47.01;96157.69;5203025;57;20132;-72
2021/09/17 14:14:19;;;;;;;2.00;1.75;;;;;;;20.44;48.53;96154.72;5203171;56;20122;-72
2021/09/17 14:19:22;;;;;;;1.75;1.58;;;;;;;20.11;48.24;96143.88;5203374;57;20128;-72
2021/09/17 14:24:24;;;;;;;2.20;1.73;;;;;;;21.62;49.96;96141.03;5203022;56;20127;-72
2021/09/17 14:29:26;;;;;;;1.30;1.30;;;;;;;21.65;47.35;96142.72;5202809;57;20132;-73
2021/09/17 14:34:29;;;;;;;2.25;1.40;;;;;;;20.72;50.97;96141.00;5201487;56;20610;-72
2021/09/17 14:39:32;;;;;;;1.70;1.60;;;;;;;20.80;50.84;96147.53;5202483;56;20141;-72
2021/09/17 14:44:34;;;;;;;2.40;1.95;;;;;;;20.39;51.81;96142.28;5199411;56;20179;-72
2021/09/17 14:49:37;;;;;;;2.10;1.80;;;;;;;20.60;50.86;96142.47;5200472;57;20114;-72
2021/09/17 14:54:39;;;;;;;1.63;1.52;;;;;;;21.09;48.94;96137.38;5201473;56;20588;-72
2021/09/17 14:59:42;;;;;;;1.33;1.33;;;;;;;20.54;48.22;96133.38;5196868;56;20126;-72
2021/09/17 15:04:44;;;;;;;1.80;1.60;;;;;;;20.29;49.62;96132.69;5201285;56;20664;-72
2021/09/17 15:09:46;;;;;;;1.45;1.45;;;;;;;20.35;50.12;96136.22;5199046;57;20682;-72
2021/09/17 15:14:49;;;;;;;1.60;1.50;;;;;;;20.18;53.14;96134.88;5200475;56;20544;-72
2021/09/17 15:19:51;;;;;;;2.05;1.55;;;;;;;20.22;53.97;96132.56;5199650;56;20196;-72
2021/09/17 15:24:53;;;;;;;1.55;1.30;;;;;;;20.27;49.12;96126.88;5199954;56;20123;-73
2021/09/17 15:29:56;;;;;;;1.23;1.23;;;;;;;20.13;48.30;96128.03;5200314;57;20119;-72
2021/09/17 15:34:59;;;;;;;1.55;1.45;;;;;;;19.94;47.82;96124.47;5200328;56;20127;-72
2021/09/17 15:40:01;;;;;;;1.25;1.25;;;;;;;20.19;47.89;96137.16;5200360;56;20132;-72
2021/09/17 15:45:04;;;;;;;1.50;1.40;;;;;;;19.53;47.80;96133.13;5200034;56;20093;-72
2021/09/17 15:50:08;;;;;;;1.30;1.20;;;;;;;19.21;49.83;96130.13;5199656;57;20141;-73
2021/09/17 15:55:11;;;;;;;2.17;1.40;;;;;;;19.19;47.88;96138.28;5199935;56;20114;-73
2021/09/17 16:00:14;;;;;;;1.42;1.30;;;;;;;19.13;50.39;96126.34;5199956;56;20584;-72
2021/09/17 16:05:17;;;;;;;1.48;1.38;;;;;;;18.99;49.58;96127.53;5200694;56;20115;-72
2021/09/17 16:10:19;;;;;;;3.65;1.65;;;;;;;18.54;51.50;96127.09;5200526;57;20163;-72
2021/09/17 16:15:22;;;;;;;1.77;1.30;;;;;;;18.59;50.52;96122.75;5192859;57;20123;-72
2021/09/17 16:20:25;;;;;;;1.35;1.33;;;;;;;18.38;52.61;96127.22;5196076;57;20119;-72
2021/09/17 16:25:27;;;;;;;2.25;1.40;;;;;;;18.36;52.74;96124.19;5200769;56;20119;-72
2021/09/17 16:30:30;;;;;;;1.45;1.40;;;;;;;18.06;55.73;96120.53;5200345;56;20137;-72
2021/09/17 16:35:32;;;;;;;2.00;1.60;;;;;;;17.95;54.91;96120.59;5200275;56;20238;-72
2021/09/17 16:40:35;;;;;;;1.65;1.45;;;;;;;17.96;54.69;96125.66;5200013;57;20128;-72
2021/09/17 16:45:37;;;;;;;1.30;1.20;;;;;;;17.60;60.25;96127.59;5200317;56;20128;-72
2021/09/17 16:50:40;;;;;;;3.97;1.48;;;;;;;17.45;59.10;96132.69;5200474;57;20136;-72
2021/09/17 16:55:42;;;;;;;1.42;1.33;;;;;;;17.20;67.26;96137.34;5200124;56;20647;-72
2021/09/17 17:00:45;;;;;;;2.20;1.55;;;;;;;17.04;71.52;96132.53;5201018;57;20110;-72
2021/09/17 17:05:47;;;;;;;1.77;1.50;;;;;;;16.83;73.58;96134.06;5200578;56;20115;-72
2021/09/17 17:10:54;;;;;;;2.70;1.63;;;;;;;16.62;76.13;96134.84;5200650;56;20167;-72
2021/09/17 17:15:57;;;;;;;2.42;1.50;;;;;;;16.28;78.63;96139.59;5199971;56;20123;-72
2021/09/17 17:21:00;;;;;;;2.28;1.90;;;;;;;16.05;79.20;96143.59;5197844;57;20115;-71
2021/09/17 17:26:02;;;;;;;1.85;1.67;;;;;;;16.05;79.22;96132.44;5199874;56;20119;-72
2021/09/17 17:31:08;;;;;;;1.60;1.50;;;;;;;16.07;79.02;96138.25;5199856;57;20119;-72
2021/09/17 17:36:10;;;;;;;1.88;1.48;;;;;;;15.74;80.84;96139.66;5199721;56;20123;-72
2021/09/17 17:41:12;;;;;;;1.52;1.42;;;;;;;15.34;82.95;96137.19;5198965;57;20651;-72
2021/09/17 17:46:15;;;;;;;1.60;1.55;;;;;;;15.00;84.56;96152.16;5198756;57;20127;-72
2021/09/17 17:51:17;;;;;;;2.72;1.65;;;;;;;14.89;84.71;96154.84;5199622;57;20123;-72
2021/09/17 17:56:20;;;;;;;2.53;1.83;;;;;;;14.92;84.81;96140.72;5199347;56;20114;-72
2021/09/17 18:01:22;;;;;;;2.97;1.90;;;;;;;14.85;84.78;96143.19;5199455;56;20124;-72
2021/09/17 18:06:25;;;;;;;2.03;1.45;;;;;;;14.65;85.52;96149.63;5199304;56;20144;-72
2021/09/17 18:11:28;;;;;;;2.10;1.90;;;;;;;14.44;87.12;96152.97;5199777;57;20270;-72
2021/09/17 18:16:32;;;;;;;2.20;2.00;;;;;;;14.33;87.61;96161.97;5199140;56;20137;-72
2021/09/17 18:21:35;;;;;;;2.15;2.05;;;;;;;14.29;87.89;96169.72;5198846;56;20109;-72
2021/09/17 18:26:37;;;;;;;2.30;2.10;;;;;;;14.21;88.16;96172.19;5199446;56;20123;-72
2021/09/17 18:31:40;;;;;;;1.98;1.88;;;;;;;14.12;88.51;96175.09;5199607;57;20212;-72
2021/09/17 18:36:42;;;;;;;2.38;2.13;;;;;;;13.79;89.04;96179.53;5199076;57;20157;-72
2021/09/17 18:41:44;;;;;;;2.15;2.05;;;;;;;13.77;89.33;96184.81;5199387;57;20115;-72
2021/09/17 18:46:47;;;;;;;3.10;2.50;;;;;;;13.92;88.67;96183.47;5198739;57;20141;-72
2021/09/17 18:51:49;;;;;;;2.28;2.17;;;;;;;13.66;89.93;96188.19;5200017;56;20141;-72
2021/09/17 18:56:52;;;;;;;3.90;2.33;;;;;;;13.75;89.63;96204.72;5191427;56;20150;-72
2021/09/17 19:01:54;;;;;;;2.40;2.20;;;;;;;13.37;91.31;96200.19;5198306;57;20701;-72
2021/09/17 19:06:57;;;;;;;2.88;2.67;;;;;;;13.40;90.97;96198.44;5199248;56;20114;-72
2021/09/17 19:12:00;;;;;;;3.05;2.42;;;;;;;13.36;90.47;96195.13;5201179;57;20128;-72
2021/09/17 19:17:02;;;;;;;3.55;2.42;;;;;;;13.22;90.81;96193.91;5200837;56;20118;-71
2021/09/17 19:22:05;;;;;;;6.68;2.40;;;;;;;13.29;90.71;96190.75;5201587;57;20133;-72
2021/09/17 19:27:08;;;;;;;2.70;2.50;;;;;;;13.17;91.63;96191.81;5201259;56;20110;-72
2021/09/17 19:32:10;;;;;;;2.60;2.40;;;;;;;13.16;91.14;96195.09;5201672;56;20202;-72
2021/09/17 19:37:13;;;;;;;2.97;2.78;;;;;;;12.96;91.50;96187.44;5201441;56;20154;-72
2021/09/17 19:42:16;;;;;;;2.88;2.67;;;;;;;12.95;91.74;96186.69;5201342;56;20128;-71
2021/09/17 19:47:19;;;;;;;2.83;2.63;;;;;;;12.89;92.04;96183.03;5195202;56;20203;-72
2021/09/17 19:52:21;;;;;;;2.80;2.60;;;;;;;12.84;91.92;96180.97;5200779;56;20704;-71
2021/09/17 19:57:24;;;;;;;3.20;2.90;;;;;;;12.80;92.07;96190.72;5225178;45;20135;-73
2021/09/17 20:02:26;;;;;;;3.08;2.88;;;;;;;12.88;91.74;96183.53;5224979;56;20126;-72
2021/09/17 20:07:29;;;;;;;3.38;3.08;;;;;;;12.69;92.06;96180.19;5225637;56;20114;-73
2021/09/17 20:12:33;;;;;;;3.05;2.83;;;;;;;12.61;92.28;96181.84;5225777;56;20118;-73
2021/09/17 20:17:36;;;;;;;3.50;3.10;;;;;;;12.45;92.51;96174.00;5232431;56;20127;-73
2021/09/17 20:22:39;;;;;;;3.08;2.88;;;;;;;12.31;92.87;96187.84;5224950;56;20109;-73
2021/09/17 20:27:42;;;;;;;3.58;3.30;;;;;;;12.23;92.63;96181.94;5224703;56;20183;-73
2021/09/17 20:32:45;;;;;;;3.13;2.92;;;;;;;12.18;93.35;96185.38;5216839;56;20148;-73
2021/09/17 20:37:47;;;;;;;3.40;2.85;;;;;;;12.18;93.68;96179.81;5224539;56;20683;-74
2021/09/17 20:42:50;;;;;;;2.90;2.70;;;;;;;12.20;93.29;96178.09;5220716;56;20659;-73
2021/09/17 20:47:54;;;;;;;2.75;2.55;;;;;;;12.11;93.31;96172.66;5223010;56;20131;-74
2021/09/17 20:52:56;;;;;;;3.42;2.92;;;;;;;12.06;92.85;96183.63;5225118;56;20122;-74
2021/09/17 20:57:59;;;;;;;7.38;2.80;;;;;;;11.93;93.42;96180.34;5222399;56;20118;-74
2021/09/17 21:03:01;;;;;;;3.20;2.90;;;;;;;11.87;92.89;96179.50;5223248;56;20132;-73
2021/09/17 21:08:05;;;;;;;3.00;2.80;;;;;;;11.79;93.34;96170.00;5221941;56;20122;-74
2021/09/17 21:13:07;;;;;;;2.95;2.75;;;;;;;11.81;93.96;96173.84;5224277;56;20595;-73
2021/09/17 21:18:09;;;;;;;3.72;2.88;;;;;;;11.81;93.97;96178.59;5224716;56;20118;-73
2021/09/17 21:23:12;;;;;;;13.88;6.95;;;;;;;11.73;94.10;96178.22;5221000;56;20118;-73
2021/09/17 21:28:14;;;;;;;7.78;5.53;;;;;;;11.66;96.12;96197.91;5220453;56;20136;-74
2021/09/17 21:33:16;;;;;;;7.25;5.57;;;;;;;11.72;94.78;96187.75;5225490;56;20135;-73
2021/09/17 21:38:19;;;;;;;4.85;4.03;;;;;;;11.73;94.24;96188.50;5216885;56;20599;-74
2021/09/17 21:43:21;;;;;;;3.88;3.40;;;;;;;11.70;93.93;96195.75;5226237;56;20114;-74
2021/09/17 21:48:24;;;;;;;3.60;3.28;;;;;;;11.77;93.54;96194.63;5217784;56;20145;-73
2021/09/17 21:53:27;;;;;;;6.22;3.50;;;;;;;11.69;93.35;96194.22;5217585;56;20205;-74
2021/09/17 21:58:32;;;;;;;4.50;3.20;;;;;;;11.71;92.84;96196.53;5226498;56;20161;-74
2021/09/17 22:03:37;;;;;;;4.70;2.70;;;;;;;11.63;93.82;96193.31;5226802;56;20762;-73
2021/09/17 22:08:39;;;;;;;2.78;2.58;;;;;;;11.44;94.18;96191.91;5217220;56;20402;-74
2021/09/17 22:13:44;;;;;;;3.20;2.90;;;;;;;11.35;94.21;96187.19;5218797;56;20127;-74
2021/09/17 22:18:46;;;;;;;2.90;2.70;;;;;;;11.34;94.59;96188.44;5225937;56;20105;-73
2021/09/17 22:23:49;;;;;;;2.80;2.60;;;;;;;11.32;94.89;96190.91;5227779;56;20118;-73
2021/09/17 22:28:51;;;;;;;2.95;2.75;;;;;;;11.28;94.56;96193.09;5230126;56;20114;-73
2021/09/17 22:33:54;;;;;;;3.08;2.70;;;;;;;11.23;94.20;96188.19;5229333;56;20127;-74
2021/09/17 22:38:56;;;;;;;3.90;2.90;;;;;;;11.17;93.71;96198.34;5222506;56;20136;-74
2021/09/17 22:44:01;;;;;;;3.60;3.25;;;;;;;11.08;94.37;96197.66;5220963;56;20144;-74
2021/09/17 22:49:03;;;;;;;4.53;3.00;;;;;;;11.06;94.14;96186.31;5228995;56;20822;-73
2021/09/17 22:54:05;;;;;;;3.13;2.83;;;;;;;11.02;94.25;96188.44;5230997;56;20118;-73
2021/09/17 22:59:08;;;;;;;3.42;3.20;;;;;;;10.97;94.24;96178.06;5229871;56;20096;-72
2021/09/17 23:04:10;;;;;;;3.30;3.05;;;;;;;10.97;93.79;96180.81;5232000;56;20131;-72
2021/09/17 23:09:13;;;;;;;5.32;3.50;;;;;;;10.97;94.03;96175.28;5223047;56;20126;-73
2021/09/17 23:14:15;;;;;;;6.18;3.45;;;;;;;10.92;94.20;96179.47;5223911;56;20555;-73
2021/09/17 23:19:17;;;;;;;5.15;3.50;;;;;;;10.77;94.19;96178.56;5233201;56;20671;-73
2021/09/17 23:24:20;;;;;;;4.70;4.25;;;;;;;10.69;94.27;96182.91;5233408;56;20127;-73
2021/09/17 23:29:23;;;;;;;4.28;3.80;;;;;;;10.63;94.57;96173.72;5233482;56;20149;-72
2021/09/17 23:34:25;;;;;;;5.53;4.38;;;;;;;10.68;94.58;96173.09;5232259;56;20123;-74
2021/09/17 23:39:28;;;;;;;3.83;3.50;;;;;;;10.74;94.24;96176.75;5231792;56;20134;-73
2021/09/17 23:44:30;;;;;;;4.05;3.65;;;;;;;10.96;93.66;96176.50;5233515;56;20117;-73